createdAt,value
2019-02-19T04:01:28.389Z,95.10
2019-02-19T04:03:57.005Z,95.20
2019-02-19T04:06:25.578Z,95.00
2019-02-19T04:08:54.166Z,94.90
2019-02-19T04:11:22.762Z,95.10
2019-02-19T04:13:51.338Z,95.10
2019-02-19T04:16:21.468Z,95.10
2019-02-19T04:18:50.206Z,95.10
2019-02-19T04:21:18.777Z,95.20
2019-02-19T04:23:47.381Z,95.10
2019-02-19T04:26:15.967Z,95.00
2019-02-19T04:28:44.617Z,94.90
2019-02-19T04:31:13.542Z,94.90
2019-02-19T04:33:42.409Z,94.90
2019-02-19T04:36:11.036Z,94.90
2019-02-19T04:38:39.608Z,94.80
2019-02-19T04:41:08.309Z,95.00
2019-02-19T04:43:36.886Z,95.00
2019-02-19T04:46:05.465Z,95.10
2019-02-19T04:48:34.066Z,95.20
2019-02-19T04:51:02.646Z,95.20
2019-02-19T04:53:31.242Z,95.00
2019-02-19T04:56:00.166Z,95.00
2019-02-19T04:58:28.745Z,95.00
2019-02-19T05:00:57.358Z,95.30
2019-02-19T05:03:26.233Z,95.60
2019-02-19T05:05:54.852Z,95.60
2019-02-19T05:08:23.429Z,95.60
2019-02-19T05:10:52.008Z,95.50
2019-02-19T05:13:20.606Z,95.60
2019-02-19T05:15:49.190Z,95.70
2019-02-19T05:18:17.766Z,95.60
2019-02-19T05:20:46.380Z,95.60
2019-02-19T05:23:14.949Z,95.50
2019-02-19T05:25:43.550Z,95.40
2019-02-19T05:28:12.511Z,95.30
2019-02-19T05:30:43.045Z,95.30
2019-02-19T05:33:11.449Z,95.30
2019-02-19T05:35:40.098Z,95.40
2019-02-19T05:38:09.183Z,95.40
2019-02-19T05:40:38.126Z,95.40
2019-02-19T05:43:06.725Z,95.30
2019-02-19T05:45:35.306Z,95.20
2019-02-19T05:48:05.311Z,95.20
2019-02-19T05:50:34.098Z,95.20
2019-02-19T05:53:02.681Z,95.10
2019-02-19T05:55:31.594Z,94.90
2019-02-19T05:58:00.197Z,95.00
2019-02-19T06:00:28.779Z,95.20
2019-02-19T06:02:57.357Z,95.20
2019-02-19T06:05:25.961Z,95.20
2019-02-19T06:07:54.834Z,95.40
2019-02-19T06:10:24.388Z,95.50
2019-02-19T06:12:53.001Z,95.50
2019-02-19T06:15:21.581Z,95.80
2019-02-19T06:17:50.493Z,95.50
2019-02-19T06:20:19.092Z,95.40
2019-02-19T06:22:47.672Z,95.30
2019-02-19T06:25:16.247Z,95.30
2019-02-19T06:27:44.850Z,95.20
2019-02-19T06:30:13.425Z,95.30
2019-02-19T06:32:42.073Z,95.20
2019-02-19T06:35:10.648Z,95.20
2019-02-19T06:37:39.233Z,95.30
2019-02-19T06:40:09.481Z,95.40
2019-02-19T06:42:38.062Z,95.30
2019-02-19T06:45:06.681Z,95.30
2019-02-19T06:47:35.263Z,95.20
2019-02-19T06:50:04.108Z,95.00
2019-02-19T06:52:32.693Z,95.00
2019-02-19T06:55:01.278Z,95.00
2019-02-19T06:57:29.877Z,95.00
2019-02-19T06:59:58.457Z,94.90
2019-02-19T07:02:58.401Z,94.80
2019-02-19T07:05:27.050Z,94.70
2019-02-19T07:07:55.625Z,94.60
2019-02-19T07:10:24.223Z,94.50
2019-02-19T07:12:52.798Z,94.30
2019-02-19T07:15:21.406Z,94.20
2019-02-19T07:17:49.977Z,94.10
2019-02-19T07:20:18.555Z,93.80
2019-02-19T07:22:47.154Z,93.70
2019-02-19T07:25:15.721Z,93.70
2019-02-19T07:27:44.611Z,93.50
2019-02-19T07:30:13.202Z,93.40
2019-02-19T07:32:41.780Z,93.50
2019-02-19T07:35:10.397Z,93.60
2019-02-19T07:37:39.340Z,93.40
2019-02-19T07:40:07.965Z,93.00
2019-02-19T07:42:36.537Z,92.30
2019-02-19T07:45:05.226Z,91.70
2019-02-19T07:47:33.826Z,91.50
2019-02-19T07:50:02.402Z,91.10
2019-02-19T07:52:30.997Z,90.50
2019-02-19T07:54:59.574Z,89.90
2019-02-19T07:57:28.145Z,87.10
2019-02-19T07:59:56.737Z,85.80
2019-02-19T08:02:25.316Z,83.70
2019-02-19T08:04:53.935Z,80.20
2019-02-19T08:07:22.494Z,75.30
2019-02-19T08:09:51.071Z,70.00
2019-02-19T08:12:19.738Z,66.10
2019-02-19T08:14:48.389Z,62.80
2019-02-19T08:17:16.995Z,59.60
2019-02-19T08:19:45.574Z,55.60
2019-02-19T08:22:14.160Z,51.90
2019-02-19T08:24:42.758Z,48.50
2019-02-19T08:27:11.333Z,46.30
2019-02-19T08:29:39.937Z,44.50
2019-02-19T08:32:08.869Z,43.20
2019-02-19T08:34:37.479Z,43.30
2019-02-19T08:37:06.077Z,43.50
2019-02-19T08:39:34.653Z,45.90
2019-02-19T08:42:03.273Z,45.30
2019-02-19T08:44:31.857Z,44.40
2019-02-19T08:47:00.434Z,45.90
2019-02-19T08:49:29.041Z,48.40
2019-02-19T08:51:57.617Z,50.80
2019-02-19T08:54:26.225Z,51.00
2019-02-19T08:56:54.805Z,48.30
2019-02-19T08:59:23.381Z,46.70
2019-02-19T09:01:51.983Z,44.10
2019-02-19T09:04:20.561Z,42.00
2019-02-19T09:06:49.161Z,41.90
2019-02-19T09:09:17.741Z,42.50
2019-02-19T09:11:46.322Z,41.80
2019-02-19T09:14:15.203Z,42.90
2019-02-19T09:16:43.781Z,44.40
2019-02-19T09:19:12.398Z,47.30
2019-02-19T09:21:40.969Z,47.70
2019-02-19T09:24:09.906Z,49.20
2019-02-19T09:26:38.621Z,48.20
2019-02-19T09:29:07.200Z,50.00
2019-02-19T09:31:35.801Z,50.70
2019-02-19T09:34:04.388Z,52.80
2019-02-19T09:36:32.990Z,50.70
2019-02-19T09:39:01.591Z,50.30
2019-02-19T09:41:30.164Z,50.60
2019-02-19T09:43:59.016Z,49.40
2019-02-19T09:46:27.590Z,50.20
2019-02-19T09:48:56.165Z,50.80
2019-02-19T09:51:25.087Z,48.90
2019-02-19T09:53:53.665Z,50.20
2019-02-19T09:56:22.274Z,49.00
2019-02-19T09:58:50.872Z,48.20
2019-02-19T10:01:19.429Z,48.80
2019-02-19T10:03:48.298Z,49.40
2019-02-19T10:06:16.882Z,49.40
2019-02-19T10:08:45.498Z,48.30
2019-02-19T10:11:14.074Z,47.50
2019-02-19T10:13:42.653Z,48.90
2019-02-19T10:16:11.260Z,47.20
2019-02-19T10:18:39.838Z,46.10
2019-02-19T10:21:08.439Z,45.70
2019-02-19T10:23:37.018Z,45.10
2019-02-19T10:26:05.594Z,44.10
2019-02-19T10:28:34.191Z,43.60
2019-02-19T10:31:02.770Z,44.70
2019-02-19T10:33:31.399Z,43.00
2019-02-19T10:35:59.977Z,43.40
2019-02-19T10:38:28.669Z,42.40
2019-02-19T10:40:57.261Z,41.70
2019-02-19T10:43:25.847Z,41.20
2019-02-19T10:45:54.455Z,40.70
2019-02-19T10:48:23.024Z,42.10
2019-02-19T10:50:51.610Z,43.80
2019-02-19T10:53:20.206Z,43.70
2019-02-19T10:55:48.780Z,43.80
2019-02-19T10:58:22.964Z,45.40
2019-02-19T11:00:47.681Z,46.50
2019-02-19T11:03:16.267Z,49.00
2019-02-19T11:05:44.863Z,50.50
2019-02-19T11:08:13.433Z,53.30
2019-02-19T11:10:42.046Z,54.30
2019-02-19T11:13:10.625Z,56.30
2019-02-19T11:15:39.568Z,56.50
2019-02-19T11:18:08.165Z,56.00
2019-02-19T11:20:36.742Z,57.30
2019-02-19T11:23:05.533Z,56.40
2019-02-19T11:25:34.118Z,55.00
2019-02-19T11:28:02.689Z,54.30
2019-02-19T11:30:31.303Z,54.10
2019-02-19T11:32:59.873Z,54.40
2019-02-19T11:35:28.485Z,54.80
2019-02-19T11:37:57.081Z,55.70
2019-02-19T11:40:25.725Z,55.50
2019-02-19T11:42:54.325Z,55.10
2019-02-19T11:45:22.901Z,54.90
2019-02-19T11:47:51.575Z,54.00
2019-02-19T11:50:20.246Z,55.50
2019-02-19T11:52:48.825Z,56.40
2019-02-19T11:55:17.471Z,57.20
2019-02-19T11:57:46.049Z,57.00
2019-02-19T12:00:17.686Z,57.30
2019-02-19T12:02:46.261Z,57.70
2019-02-19T12:05:14.844Z,59.00
2019-02-19T12:07:43.441Z,58.80
2019-02-19T12:10:12.221Z,57.70
2019-02-19T12:12:41.002Z,58.30
2019-02-19T12:15:09.585Z,57.60
2019-02-19T12:17:38.154Z,57.60
2019-02-19T12:20:06.820Z,56.60
2019-02-19T12:22:35.393Z,55.40
2019-02-19T12:25:04.021Z,54.00
2019-02-19T12:27:32.597Z,52.90
2019-02-19T12:30:01.181Z,54.00
2019-02-19T12:32:29.781Z,52.50
2019-02-19T12:34:58.355Z,53.30
2019-02-19T12:37:27.041Z,53.40
2019-02-19T12:39:55.610Z,54.40
2019-02-19T12:42:24.233Z,53.70
2019-02-19T12:44:52.826Z,52.50
2019-02-19T12:47:21.398Z,52.80
2019-02-19T12:49:50.007Z,52.90
2019-02-19T12:52:18.577Z,53.20
2019-02-19T12:54:47.153Z,54.00
2019-02-19T12:57:15.745Z,54.30
2019-02-19T12:59:44.322Z,52.90
2019-02-19T13:02:12.917Z,52.30
2019-02-19T13:04:41.802Z,51.40
2019-02-19T13:07:10.650Z,51.80
2019-02-19T13:09:39.242Z,51.80
2019-02-19T13:12:07.819Z,51.90
2019-02-19T13:14:36.778Z,52.20
2019-02-19T13:17:05.649Z,53.00
2019-02-19T13:19:34.237Z,53.30
2019-02-19T13:22:02.839Z,54.50
2019-02-19T13:24:31.509Z,55.00
2019-02-19T13:27:00.116Z,55.70
2019-02-19T13:29:28.685Z,56.60
2019-02-19T13:31:57.533Z,56.90
2019-02-19T13:34:26.132Z,56.80
2019-02-19T13:36:54.709Z,57.60
2019-02-19T13:39:23.312Z,58.30
2019-02-19T13:41:51.889Z,59.50
2019-02-19T13:44:20.497Z,59.60
2019-02-19T13:46:49.102Z,59.70
2019-02-19T13:49:17.677Z,59.90
2019-02-19T13:51:46.747Z,59.50
2019-02-19T13:54:25.729Z,59.70
2019-02-19T13:56:54.329Z,59.30
2019-02-19T13:59:22.924Z,59.60
2019-02-19T14:01:51.517Z,60.00
2019-02-19T14:04:20.118Z,58.60
2019-02-19T14:06:48.770Z,59.00
2019-02-19T14:09:17.378Z,59.80
2019-02-19T14:11:46.058Z,61.00
2019-02-19T14:14:26.658Z,60.60
2019-02-19T14:17:01.411Z,61.40
2019-02-19T14:19:55.145Z,61.00
2019-02-19T14:22:43.809Z,60.50
2019-02-19T14:25:31.516Z,60.70
2019-02-19T14:28:19.178Z,60.40
2019-02-19T14:31:06.860Z,60.40
2019-02-19T14:33:51.898Z,60.90
2019-02-19T14:36:32.481Z,61.10
2019-02-19T14:39:18.909Z,61.30
2019-02-19T14:42:12.709Z,61.30
2019-02-19T14:44:51.049Z,61.30
2019-02-19T14:47:38.702Z,62.40
2019-02-19T14:50:25.478Z,61.80
2019-02-19T14:53:13.180Z,61.50
2019-02-19T14:55:49.792Z,60.90
2019-02-19T14:58:43.586Z,61.00
2019-02-19T15:01:34.333Z,61.30
2019-02-19T15:04:22.168Z,61.40
2019-02-19T15:07:01.957Z,62.20
2019-02-19T15:09:58.753Z,62.40
2019-02-19T15:12:49.402Z,62.90
2019-02-19T15:15:38.866Z,62.80
2019-02-19T15:18:32.897Z,62.50
2019-02-19T15:21:12.785Z,62.60
2019-02-19T15:24:00.417Z,62.50
2019-02-19T15:26:55.645Z,62.80
2019-02-19T15:29:52.778Z,63.40
2019-02-19T15:32:52.941Z,63.50
2019-02-19T15:35:49.647Z,63.90
2019-02-19T15:38:40.289Z,65.10
2019-02-19T15:41:37.144Z,65.50
2019-02-19T15:44:20.880Z,66.70
2019-02-19T15:47:07.305Z,66.60
2019-02-19T15:49:50.284Z,67.50
2019-02-19T15:52:35.426Z,67.40
2019-02-19T15:55:32.430Z,67.40
2019-02-19T15:58:26.350Z,67.70
2019-02-19T16:01:23.279Z,67.80
2019-02-19T16:04:00.165Z,67.70
2019-02-19T16:06:47.527Z,67.60
2019-02-19T16:09:28.361Z,67.90
2019-02-19T16:12:14.850Z,68.20
2019-02-19T16:15:02.519Z,68.40
2019-02-19T16:17:52.954Z,68.60
2019-02-19T16:20:29.257Z,69.00
2019-02-19T16:23:18.771Z,68.70
2019-02-19T16:25:54.889Z,69.00
2019-02-19T16:28:41.325Z,69.40
2019-02-19T16:31:38.162Z,69.70
2019-02-19T16:34:22.310Z,70.50
2019-02-19T16:37:09.421Z,71.00
2019-02-19T16:39:56.118Z,71.60
2019-02-19T16:42:38.110Z,71.90
2019-02-19T16:45:20.911Z,72.40
2019-02-19T16:48:04.731Z,73.30
2019-02-19T16:50:54.252Z,74.70
2019-02-19T16:53:41.847Z,76.00
2019-02-19T16:56:32.438Z,76.90
2019-02-19T16:59:21.599Z,77.20
2019-02-19T17:02:12.754Z,78.20
2019-02-19T17:05:17.199Z,78.60
2019-02-19T17:07:51.647Z,79.40
2019-02-19T17:10:46.049Z,79.50
2019-02-19T17:13:25.713Z,79.80
2019-02-19T17:16:13.667Z,81.10
2019-02-19T17:19:08.861Z,81.40
2019-02-19T17:21:50.320Z,81.80
2019-02-19T17:24:33.905Z,82.20
2019-02-19T17:27:22.225Z,82.30
2019-02-19T17:30:08.810Z,82.10
2019-02-19T17:33:02.919Z,81.90
2019-02-19T17:35:53.153Z,82.00
2019-02-19T17:38:26.909Z,82.10
2019-02-19T17:41:07.401Z,82.30
2019-02-19T17:43:54.369Z,83.00
2019-02-19T17:46:40.921Z,83.00
2019-02-19T17:49:33.633Z,82.60
2019-02-19T17:52:24.341Z,83.10
2019-02-19T17:54:59.783Z,82.60
2019-02-19T17:57:38.530Z,82.70
2019-02-19T18:00:23.848Z,82.70
2019-02-19T18:03:00.487Z,82.60
2019-02-19T18:05:55.238Z,83.50
2019-02-19T18:08:32.664Z,83.00
2019-02-19T18:11:20.709Z,82.90
2019-02-19T18:14:17.874Z,83.20
2019-02-19T18:17:00.251Z,83.70
2019-02-19T18:19:29.201Z,83.90
2019-02-19T18:21:57.924Z,84.00
2019-02-19T18:24:26.529Z,83.80
2019-02-19T18:26:55.139Z,83.60
2019-02-19T18:29:23.714Z,84.00
2019-02-19T18:31:52.315Z,84.40
2019-02-19T18:34:20.914Z,84.60
2019-02-19T18:36:49.486Z,85.10
2019-02-19T18:39:18.098Z,85.20
2019-02-19T18:41:46.757Z,85.30
2019-02-19T18:44:15.410Z,85.60
2019-02-19T18:46:44.082Z,85.60
2019-02-19T18:49:12.978Z,85.80
2019-02-19T18:51:42.964Z,86.10
2019-02-19T18:54:11.581Z,85.60
2019-02-19T18:56:40.158Z,85.40
2019-02-19T18:59:09.154Z,85.50
2019-02-19T19:01:37.861Z,85.80
2019-02-19T19:04:06.631Z,85.50
2019-02-19T19:06:35.259Z,85.10
2019-02-19T19:09:05.018Z,85.20
2019-02-19T19:11:33.605Z,85.20
2019-02-19T19:14:02.274Z,85.30
2019-02-19T19:16:30.986Z,85.20
2019-02-19T19:18:59.594Z,85.80
2019-02-19T19:21:28.171Z,85.40
2019-02-19T19:23:57.106Z,85.20
2019-02-19T19:26:25.969Z,85.10
2019-02-19T19:28:54.625Z,85.00
2019-02-19T19:31:23.329Z,85.20
2019-02-19T19:33:51.909Z,85.40
2019-02-19T19:36:20.571Z,85.50
2019-02-19T19:38:49.186Z,85.80
2019-02-19T19:41:17.943Z,86.80
2019-02-19T19:43:46.552Z,86.40
2019-02-19T19:46:15.281Z,86.60
2019-02-19T19:48:45.902Z,87.20
2019-02-19T19:51:17.292Z,87.00
2019-02-19T19:53:44.726Z,87.00
2019-02-19T19:56:13.419Z,86.80
2019-02-19T19:58:42.002Z,86.50
2019-02-19T20:01:10.640Z,86.40
2019-02-19T20:03:39.482Z,86.20
2019-02-19T20:06:08.249Z,85.40
2019-02-19T20:08:36.983Z,86.10
2019-02-19T20:11:05.565Z,86.00
2019-02-19T20:13:34.539Z,86.10
2019-02-19T20:16:03.449Z,86.10
2019-02-19T20:18:38.939Z,86.10
2019-02-19T20:21:02.642Z,86.30
2019-02-19T20:23:31.322Z,86.40
2019-02-19T20:25:59.893Z,86.70
2019-02-19T20:28:28.498Z,87.20
2019-02-19T20:30:57.373Z,87.50
2019-02-19T20:33:25.979Z,87.50
2019-02-19T20:35:54.586Z,87.70
2019-02-19T20:38:23.168Z,87.90
2019-02-19T20:40:52.137Z,88.50
2019-02-19T20:43:20.802Z,89.40
2019-02-19T20:45:49.400Z,90.20
2019-02-19T20:48:17.976Z,90.30
2019-02-19T20:50:46.590Z,90.20
2019-02-19T20:53:15.243Z,90.10
2019-02-19T20:55:43.851Z,89.80
2019-02-19T20:58:12.446Z,89.80
2019-02-19T21:00:41.022Z,89.70
2019-02-19T21:03:09.634Z,89.50
2019-02-19T21:05:38.209Z,89.70
2019-02-19T21:08:06.781Z,89.70
2019-02-19T21:10:35.801Z,89.70
2019-02-19T21:13:04.722Z,89.70
2019-02-19T21:15:33.330Z,89.90
2019-02-19T21:18:02.427Z,90.00
2019-02-19T21:20:31.086Z,89.90
2019-02-19T21:22:59.682Z,89.90
2019-02-19T21:25:31.004Z,90.00
2019-02-19T21:27:58.973Z,90.10
2019-02-19T21:30:27.549Z,90.20
2019-02-19T21:32:56.981Z,90.30
2019-02-19T21:35:25.824Z,90.70
2019-02-19T21:37:54.402Z,90.70
2019-02-19T21:40:23.030Z,90.70
2019-02-19T21:42:51.602Z,90.60
2019-02-19T21:45:20.220Z,90.60
2019-02-19T21:47:49.094Z,90.60
2019-02-19T21:50:17.774Z,90.70
2019-02-19T21:52:46.385Z,90.70
2019-02-19T21:55:15.133Z,90.70
2019-02-19T21:57:43.706Z,90.60
2019-02-19T22:00:13.624Z,90.60
2019-02-19T22:02:42.201Z,90.80
2019-02-19T22:05:10.830Z,90.80
2019-02-19T22:07:39.402Z,91.30
2019-02-19T22:10:08.025Z,91.00
2019-02-19T22:12:36.626Z,91.20
2019-02-19T22:15:05.910Z,91.30
2019-02-19T22:17:34.478Z,91.30
2019-02-19T22:20:03.642Z,91.50
2019-02-19T22:22:33.602Z,91.60
2019-02-19T22:25:02.210Z,92.10
2019-02-19T22:27:30.781Z,91.80
2019-02-19T22:29:59.362Z,92.00
2019-02-19T22:32:27.957Z,91.90
2019-02-19T22:34:56.856Z,92.20
2019-02-19T22:37:25.448Z,92.20
2019-02-19T22:39:54.056Z,92.00
2019-02-19T22:42:22.719Z,92.20
2019-02-19T22:44:51.750Z,92.00
2019-02-19T22:47:20.378Z,92.00
2019-02-19T22:49:49.260Z,92.00
2019-02-19T22:52:17.834Z,92.00
2019-02-19T22:55:10.789Z,92.00
2019-02-19T22:57:40.529Z,92.00
2019-02-19T23:00:20.270Z,92.00
